Terminal Aerodrome Forecast
Issued by NWS Jackson, MS

Home | Current Version | Previous Version | Text Only | Print | Product List | Glossary On
Versions: 1 2 3 4 5 6 7 8 9 10 11 12 13 14 15 16 17 18
000
FTUS44 KJAN 281120
TAFHBG
TAF
KHBG 281120Z 2812/2912 23010KT P6SM SKC
     FM281800 23011G18KT P6SM VCSH SCT040
     FM290000 19003KT P6SM SCT150=

USA.gov is the U.S. government's official web portal to all federal, state and local government web resources and services.